createdAt,value
2023-04-23T00:01:06.694Z,6.73
2023-04-23T00:03:59.088Z,6.73
2023-04-23T00:06:48.275Z,6.65
2023-04-23T00:09:36.409Z,6.45
2023-04-23T00:12:24.634Z,6.24
2023-04-23T00:15:14.076Z,6.27
2023-04-23T00:18:01.777Z,6.32
2023-04-23T00:20:49.597Z,6.10
2023-04-23T00:23:37.202Z,6.28
2023-04-23T00:26:24.884Z,6.21
2023-04-23T00:29:13.045Z,6.23
2023-04-23T00:32:00.999Z,6.15
2023-04-23T00:34:52.048Z,6.24
2023-04-23T00:37:39.751Z,6.07
2023-04-23T00:40:27.551Z,6.23
2023-04-23T00:43:15.680Z,6.20
2023-04-23T00:46:03.725Z,6.11
2023-04-23T00:48:52.624Z,6.26
2023-04-23T00:51:40.738Z,6.24
2023-04-23T00:54:28.759Z,6.19
2023-04-23T00:57:17.243Z,6.16
2023-04-23T01:00:06.178Z,6.04
2023-04-23T01:02:54.424Z,6.08
2023-04-23T01:05:47.972Z,6.20
2023-04-23T01:08:43.918Z,5.89
2023-04-23T01:11:32.354Z,5.95
2023-04-23T01:14:20.834Z,5.97
2023-04-23T01:17:12.583Z,5.80
2023-04-23T01:20:00.585Z,5.82
2023-04-23T01:22:48.361Z,5.72
2023-04-23T01:25:36.258Z,5.61
2023-04-23T01:28:24.220Z,5.61
2023-04-23T01:31:14.176Z,5.67
2023-04-23T01:34:03.612Z,5.64
2023-04-23T01:36:52.553Z,5.64
2023-04-23T01:39:40.237Z,5.39
2023-04-23T01:42:27.942Z,5.63
2023-04-23T01:45:17.895Z,5.60
2023-04-23T01:48:05.995Z,5.67
2023-04-23T01:50:54.360Z,5.51
2023-04-23T01:53:42.123Z,5.53
2023-04-23T01:56:30.950Z,5.61
2023-04-23T01:59:18.746Z,5.44
2023-04-23T02:02:10.905Z,5.40
2023-04-23T02:05:01.140Z,5.24
2023-04-23T02:07:52.208Z,5.24
2023-04-23T02:10:40.295Z,5.24
2023-04-23T02:13:28.029Z,5.30
2023-04-23T02:16:16.525Z,5.20
2023-04-23T02:19:04.476Z,5.07
2023-04-23T02:21:52.302Z,5.21
2023-04-23T02:24:42.584Z,5.17
2023-04-23T02:27:30.411Z,5.04
2023-04-23T02:30:18.244Z,5.14
2023-04-23T02:33:06.298Z,5.05
2023-04-23T02:35:54.228Z,5.06
2023-04-23T02:38:42.696Z,4.89
2023-04-23T02:41:30.384Z,5.19
2023-04-23T02:44:18.215Z,5.16
2023-04-23T02:47:06.079Z,5.06
2023-04-23T02:49:54.044Z,4.91
2023-04-23T02:52:41.742Z,4.83
2023-04-23T02:55:30.126Z,4.97
2023-04-23T02:58:17.938Z,4.99
2023-04-23T03:01:09.428Z,4.82
2023-04-23T03:03:57.567Z,4.92
2023-04-23T03:06:45.610Z,4.76
2023-04-23T03:09:33.286Z,4.90
2023-04-23T03:12:21.086Z,4.77
2023-04-23T03:15:09.719Z,4.79
2023-04-23T03:17:58.202Z,4.73
2023-04-23T03:20:46.654Z,4.52
2023-04-23T03:23:34.550Z,4.61
2023-04-23T03:26:22.220Z,4.67
2023-04-23T03:29:10.922Z,4.54
2023-04-23T03:31:59.007Z,4.68
2023-04-23T03:34:46.874Z,4.66
2023-04-23T03:37:36.058Z,4.66
2023-04-23T03:40:25.699Z,4.04
2023-04-23T03:43:18.146Z,4.55
2023-04-23T03:46:23.950Z,4.44
2023-04-23T03:49:12.980Z,4.49
2023-04-23T03:52:00.774Z,4.47
2023-04-23T03:54:53.318Z,4.49
2023-04-23T03:57:46.735Z,4.26
2023-04-23T04:00:42.326Z,4.54
2023-04-23T04:03:30.177Z,4.64
2023-04-23T04:06:18.092Z,4.68
2023-04-23T04:09:08.303Z,4.76
2023-04-23T04:11:56.376Z,4.87
2023-04-23T04:14:46.168Z,4.83
2023-04-23T04:17:34.003Z,4.89
2023-04-23T04:20:21.668Z,5.15
2023-04-23T04:23:09.309Z,5.37
2023-04-23T04:25:57.981Z,5.43
2023-04-23T04:28:45.729Z,5.60
2023-04-23T04:31:33.821Z,5.74
2023-04-23T04:34:21.746Z,5.84
2023-04-23T04:37:11.181Z,5.77
2023-04-23T04:39:58.908Z,5.99
2023-04-23T04:42:47.320Z,6.29
2023-04-23T04:45:35.319Z,6.39
2023-04-23T04:48:23.032Z,6.73
2023-04-23T04:51:10.859Z,7.07
2023-04-23T04:53:58.898Z,7.64
2023-04-23T04:56:46.861Z,8.01
2023-04-23T04:59:34.637Z,7.97
2023-04-23T05:02:23.609Z,8.90
2023-04-23T05:05:11.532Z,9.80
2023-04-23T05:08:05.070Z,10.34
2023-04-23T05:10:54.382Z,10.89
2023-04-23T05:13:42.516Z,11.13
2023-04-23T05:16:30.455Z,11.51
2023-04-23T05:19:21.043Z,11.85
2023-04-23T05:22:08.766Z,12.27
2023-04-23T05:24:56.582Z,12.13
2023-04-23T05:27:44.379Z,12.35
2023-04-23T05:30:32.006Z,13.12
2023-04-23T05:33:19.715Z,13.47
2023-04-23T05:36:08.480Z,13.57
2023-04-23T05:38:56.187Z,12.49
2023-04-23T05:41:43.910Z,13.15
2023-04-23T05:44:32.339Z,13.23
2023-04-23T05:47:20.159Z,13.24
2023-04-23T05:50:08.337Z,12.79
2023-04-23T05:52:56.072Z,12.62
2023-04-23T05:55:45.404Z,12.25
2023-04-23T05:58:35.958Z,13.29
2023-04-23T06:01:36.798Z,13.86
2023-04-23T06:04:25.270Z,14.32
2023-04-23T06:07:18.862Z,14.74
2023-04-23T06:10:07.398Z,14.03
2023-04-23T06:12:56.040Z,14.09
2023-04-23T06:15:46.168Z,14.57
2023-04-23T06:18:33.904Z,14.80
2023-04-23T06:21:21.755Z,15.11
2023-04-23T06:24:10.083Z,15.67
2023-04-23T06:26:58.070Z,15.85
2023-04-23T06:29:47.288Z,16.20
2023-04-23T06:32:35.053Z,16.35
2023-04-23T06:35:22.844Z,17.08
2023-04-23T06:38:10.653Z,16.34
2023-04-23T06:40:59.161Z,16.88
2023-04-23T06:43:48.538Z,16.84
2023-04-23T06:46:42.090Z,16.12
2023-04-23T06:49:29.796Z,16.75
2023-04-23T06:52:17.538Z,17.43
2023-04-23T06:55:05.581Z,17.52
2023-04-23T06:57:53.700Z,18.28
2023-04-23T07:00:42.118Z,17.84
2023-04-23T07:03:31.150Z,18.50
2023-04-23T07:06:18.825Z,19.13
2023-04-23T07:09:06.624Z,18.61
2023-04-23T07:11:54.418Z,18.67
2023-04-23T07:14:42.350Z,19.39
2023-04-23T07:17:31.272Z,18.98
2023-04-23T07:20:19.064Z,19.39
2023-04-23T07:23:06.914Z,19.82
2023-04-23T07:25:54.580Z,20.42
2023-04-23T07:28:42.377Z,20.65
2023-04-23T07:31:30.169Z,21.07
2023-04-23T07:34:17.852Z,20.48
2023-04-23T07:37:05.618Z,20.33
2023-04-23T07:39:54.172Z,21.02
2023-04-23T07:42:41.871Z,20.36
2023-04-23T07:45:32.239Z,21.14
2023-04-23T07:48:19.913Z,20.71
2023-04-23T07:51:08.733Z,20.68
2023-04-23T07:53:58.397Z,21.10
2023-04-23T07:56:51.648Z,20.76
2023-04-23T07:59:42.296Z,21.12
2023-04-23T08:02:30.344Z,22.18
2023-04-23T08:05:18.158Z,22.64
2023-04-23T08:08:05.892Z,22.68
2023-04-23T08:10:53.609Z,21.65
2023-04-23T08:13:41.231Z,21.05
2023-04-23T08:16:30.792Z,21.40
2023-04-23T08:19:18.863Z,22.21
2023-04-23T08:22:06.650Z,22.53
2023-04-23T08:24:57.170Z,22.39
2023-04-23T08:27:44.888Z,21.38
2023-04-23T08:30:32.849Z,21.91
2023-04-23T08:33:23.884Z,22.91
2023-04-23T08:36:11.535Z,22.67
2023-04-23T08:39:00.908Z,22.69
2023-04-23T08:41:55.159Z,22.77
2023-04-23T08:44:44.068Z,22.35
2023-04-23T08:47:32.872Z,22.16
2023-04-23T08:50:20.621Z,22.57
2023-04-23T08:53:08.729Z,23.11
2023-04-23T08:55:59.924Z,23.36
2023-04-23T08:58:47.751Z,23.12
2023-04-23T09:01:38.294Z,22.55
2023-04-23T09:04:29.421Z,23.16
2023-04-23T09:07:17.970Z,23.30
2023-04-23T09:10:08.280Z,22.80
2023-04-23T09:12:55.990Z,23.14
2023-04-23T09:15:44.102Z,23.27
2023-04-23T09:18:31.738Z,23.51
2023-04-23T09:21:19.702Z,23.08
2023-04-23T09:24:12.076Z,23.86
2023-04-23T09:26:59.881Z,23.37
2023-04-23T09:29:49.210Z,22.94
2023-04-23T09:32:42.582Z,23.70
2023-04-23T09:35:30.302Z,24.03
2023-04-23T09:38:20.184Z,23.28
2023-04-23T09:41:27.896Z,23.72
2023-04-23T09:44:19.635Z,23.87
2023-04-23T09:47:13.176Z,23.22
2023-04-23T09:50:04.793Z,23.87
2023-04-23T09:52:56.785Z,24.21
2023-04-23T09:55:45.223Z,23.60
2023-04-23T09:58:32.937Z,23.79
2023-04-23T10:01:28.821Z,23.89
2023-04-23T10:04:23.838Z,23.64
2023-04-23T10:10:05.118Z,23.53
2023-04-23T10:12:55.758Z,23.33
2023-04-23T10:15:46.794Z,23.92
2023-04-23T10:18:34.718Z,23.50
2023-04-23T10:21:42.557Z,23.68
2023-04-23T10:24:41.831Z,24.40
2023-04-23T10:27:44.664Z,24.35
2023-04-23T10:30:40.225Z,24.05
2023-04-23T10:33:37.616Z,24.35
2023-04-23T10:36:33.985Z,25.03
2023-04-23T10:39:29.832Z,24.77
2023-04-23T10:42:18.420Z,25.09
2023-04-23T10:48:09.838Z,24.35
2023-04-23T10:53:52.627Z,24.56
2023-04-23T10:56:41.549Z,24.31
2023-04-23T10:59:34.131Z,24.55
2023-04-23T11:02:24.544Z,24.74
2023-04-23T11:05:12.278Z,24.34
2023-04-23T11:08:18.316Z,24.47
2023-04-23T11:11:09.762Z,25.10
2023-04-23T11:13:59.673Z,24.57
2023-04-23T11:16:49.190Z,23.94
2023-04-23T11:19:42.014Z,24.30
2023-04-23T11:22:46.514Z,24.32
2023-04-23T11:25:36.124Z,24.26
2023-04-23T11:28:24.085Z,23.91
2023-04-23T11:31:11.737Z,23.39
2023-04-23T11:33:59.659Z,24.10
2023-04-23T11:36:49.831Z,24.89
2023-04-23T11:39:37.732Z,25.17
2023-04-23T11:42:26.144Z,24.86
2023-04-23T11:45:20.786Z,24.46
2023-04-23T11:48:08.480Z,24.65
2023-04-23T11:50:56.528Z,24.52
2023-04-23T11:53:49.988Z,24.31
2023-04-23T11:56:38.463Z,23.42
2023-04-23T11:59:26.619Z,23.96
2023-04-23T12:02:14.654Z,23.45
2023-04-23T12:05:06.486Z,23.64
2023-04-23T12:07:54.934Z,23.58
2023-04-23T12:10:45.798Z,23.46
2023-04-23T12:13:34.106Z,23.28
2023-04-23T12:16:40.203Z,23.91
2023-04-23T12:19:29.911Z,23.86
2023-04-23T12:22:17.658Z,24.32
2023-04-23T12:25:09.855Z,23.89
2023-04-23T12:28:04.102Z,23.55
2023-04-23T12:30:52.505Z,23.35
2023-04-23T12:33:40.196Z,23.71
2023-04-23T12:36:32.765Z,23.80
2023-04-23T12:39:21.991Z,23.96
2023-04-23T12:42:10.732Z,23.63
2023-04-23T12:45:07.504Z,23.56
2023-04-23T12:47:57.802Z,24.16
2023-04-23T12:50:46.805Z,23.99
2023-04-23T12:53:34.508Z,23.57
2023-04-23T12:56:22.142Z,23.84
2023-04-23T12:59:10.101Z,23.98
2023-04-23T13:02:02.800Z,23.66
2023-04-23T13:04:51.417Z,23.76
2023-04-23T13:07:39.145Z,23.39
2023-04-23T13:10:28.370Z,22.91
2023-04-23T13:13:16.216Z,23.28
2023-04-23T13:16:04.035Z,23.44
2023-04-23T13:18:54.845Z,23.47
2023-04-23T13:21:43.641Z,23.66
2023-04-23T13:24:31.364Z,23.45
2023-04-23T13:27:19.103Z,23.38
2023-04-23T13:30:07.405Z,23.48
2023-04-23T13:32:57.122Z,23.02
2023-04-23T13:35:44.864Z,23.09
2023-04-23T13:38:33.112Z,23.18
2023-04-23T13:41:20.917Z,23.47
2023-04-23T13:44:08.894Z,23.26
2023-04-23T13:46:58.768Z,22.93
2023-04-23T13:49:46.558Z,22.95
2023-04-23T13:52:35.494Z,23.08
2023-04-23T13:55:23.321Z,22.81
2023-04-23T13:58:14.023Z,22.77
2023-04-23T14:01:16.079Z,22.84
2023-04-23T14:04:13.646Z,22.61
2023-04-23T14:07:04.001Z,22.97
2023-04-23T14:09:53.040Z,22.92
2023-04-23T14:12:41.488Z,22.75
2023-04-23T14:15:29.281Z,23.03
2023-04-23T14:18:17.380Z,22.92
2023-04-23T14:21:05.465Z,22.74
2023-04-23T14:24:08.887Z,22.65
2023-04-23T14:26:57.122Z,22.61
2023-04-23T14:29:56.850Z,22.32
2023-04-23T14:32:48.445Z,22.71
2023-04-23T14:38:29.472Z,22.30
2023-04-23T14:41:17.207Z,22.57
2023-04-23T14:44:04.864Z,22.33
2023-04-23T14:46:53.401Z,22.21
2023-04-23T14:49:41.986Z,22.05
2023-04-23T14:52:30.517Z,22.04
2023-04-23T14:55:18.502Z,22.15
2023-04-23T14:58:06.649Z,21.91
2023-04-23T15:00:54.584Z,22.23
2023-04-23T15:03:44.708Z,22.24
2023-04-23T15:06:32.685Z,22.12
2023-04-23T15:09:20.453Z,22.10
2023-04-23T15:12:38.258Z,21.74
2023-04-23T15:15:36.796Z,22.04
2023-04-23T15:18:29.161Z,21.97
2023-04-23T15:21:19.797Z,21.79
2023-04-23T15:24:08.095Z,21.78
2023-04-23T15:26:58.282Z,21.68
2023-04-23T15:29:45.932Z,21.33
2023-04-23T15:32:33.743Z,21.15
2023-04-23T15:35:30.385Z,21.12
2023-04-23T15:38:19.070Z,20.98
2023-04-23T15:41:06.933Z,21.08
2023-04-23T15:43:55.840Z,21.12
2023-04-23T15:46:43.573Z,20.98
2023-04-23T15:49:31.457Z,21.12
2023-04-23T15:52:19.213Z,21.02
2023-04-23T15:55:07.858Z,21.01
2023-04-23T15:57:55.902Z,20.64
2023-04-23T16:00:46.953Z,20.77
2023-04-23T16:03:35.039Z,20.87
2023-04-23T16:06:24.231Z,20.40
2023-04-23T16:09:16.519Z,20.16
2023-04-23T16:12:04.899Z,20.10
2023-04-23T16:14:52.678Z,19.88
2023-04-23T16:17:40.700Z,19.80
2023-04-23T16:20:29.024Z,19.75
2023-04-23T16:23:16.770Z,19.52
2023-04-23T16:26:08.867Z,19.26
2023-04-23T16:29:16.773Z,19.36
2023-04-23T16:32:05.768Z,19.13
2023-04-23T16:34:53.496Z,19.26
2023-04-23T16:37:41.397Z,18.74
2023-04-23T16:40:29.613Z,19.05
2023-04-23T16:43:20.546Z,18.93
2023-04-23T16:46:10.981Z,18.80
2023-04-23T16:48:58.704Z,18.77
2023-04-23T16:51:46.452Z,18.67
2023-04-23T16:54:36.358Z,18.49
2023-04-23T16:57:24.256Z,18.37
2023-04-23T17:00:12.970Z,18.38
2023-04-23T17:03:00.765Z,18.25
2023-04-23T17:06:00.400Z,18.14
2023-04-23T17:08:48.275Z,17.91
2023-04-23T17:11:36.692Z,17.61
2023-04-23T17:14:24.511Z,17.59
2023-04-23T17:17:12.177Z,17.32
2023-04-23T17:19:59.898Z,17.19
2023-04-23T17:22:47.537Z,17.28
2023-04-23T17:25:35.405Z,17.04
2023-04-23T17:28:23.201Z,17.00
2023-04-23T17:31:11.550Z,16.88
2023-04-23T17:34:02.204Z,16.83
2023-04-23T17:36:49.883Z,16.64
2023-04-23T17:39:37.569Z,16.56
2023-04-23T17:42:25.387Z,16.47
2023-04-23T17:45:13.126Z,16.44
2023-04-23T17:48:00.940Z,16.30
2023-04-23T17:50:48.612Z,16.07
2023-04-23T17:53:36.703Z,16.25
2023-04-23T17:56:25.401Z,16.04
2023-04-23T17:59:13.283Z,15.74
2023-04-23T18:02:10.185Z,15.94
2023-04-23T18:04:59.584Z,15.82
2023-04-23T18:07:47.403Z,15.66
2023-04-23T18:10:35.210Z,15.55
2023-04-23T18:13:22.940Z,15.52
2023-04-23T18:16:10.887Z,15.31
2023-04-23T18:18:59.537Z,15.47
2023-04-23T18:21:48.056Z,15.29
2023-04-23T18:24:38.297Z,15.26
2023-04-23T18:27:26.163Z,15.03
2023-04-23T18:30:15.563Z,14.99
2023-04-23T18:33:14.048Z,14.94
2023-04-23T18:36:05.909Z,15.10
2023-04-23T18:38:54.094Z,15.07
2023-04-23T18:41:41.784Z,14.96
2023-04-23T18:44:30.102Z,15.03
2023-04-23T18:47:19.427Z,14.98
2023-04-23T18:50:29.325Z,15.12
2023-04-23T18:53:17.220Z,14.92
2023-04-23T18:56:05.379Z,14.98
2023-04-23T18:58:53.139Z,14.56
2023-04-23T19:01:42.499Z,14.72
2023-04-23T19:04:32.196Z,14.82
2023-04-23T19:07:20.103Z,14.59
2023-04-23T19:10:08.607Z,14.45
2023-04-23T19:12:56.769Z,14.22
2023-04-23T19:15:44.354Z,13.88
2023-04-23T19:18:32.341Z,14.18
2023-04-23T19:21:19.986Z,14.02
2023-04-23T19:24:08.111Z,13.96
2023-04-23T19:26:55.718Z,13.80
2023-04-23T19:29:43.671Z,13.79
2023-04-23T19:32:35.626Z,13.69
2023-04-23T19:35:23.433Z,13.55
2023-04-23T19:38:11.162Z,13.33
2023-04-23T19:41:01.799Z,13.19
2023-04-23T19:43:49.508Z,12.97
2023-04-23T19:46:37.437Z,13.08
2023-04-23T19:49:26.376Z,12.61
2023-04-23T19:52:20.030Z,12.90
2023-04-23T19:55:08.217Z,12.87
2023-04-23T19:57:56.729Z,12.61
2023-04-23T20:00:46.855Z,12.74
2023-04-23T20:03:37.756Z,12.62
2023-04-23T20:06:26.773Z,12.36
2023-04-23T20:09:22.161Z,12.52
2023-04-23T20:12:09.842Z,12.45
2023-04-23T20:15:03.690Z,12.32
2023-04-23T20:17:51.936Z,12.32
2023-04-23T20:20:42.128Z,12.06
2023-04-23T20:23:29.784Z,12.25
2023-04-23T20:26:19.016Z,12.30
2023-04-23T20:29:12.788Z,12.23
2023-04-23T20:32:08.509Z,12.13
2023-04-23T20:34:56.512Z,12.06
2023-04-23T20:37:44.254Z,11.46
2023-04-23T20:40:34.807Z,11.88
2023-04-23T20:43:44.255Z,11.81
2023-04-23T20:46:32.923Z,11.70
2023-04-23T20:49:25.508Z,11.70
2023-04-23T20:52:14.784Z,11.57
2023-04-23T20:55:02.763Z,11.54
2023-04-23T20:57:50.554Z,11.58
2023-04-23T21:00:39.264Z,11.61
2023-04-23T21:03:27.751Z,11.60
2023-04-23T21:06:15.835Z,11.42
2023-04-23T21:09:04.829Z,10.72
2023-04-23T21:11:52.598Z,11.42
2023-04-23T21:14:40.275Z,10.97
2023-04-23T21:17:28.451Z,11.22
2023-04-23T21:20:16.330Z,11.13
2023-04-23T21:23:04.098Z,11.21
2023-04-23T21:25:51.994Z,11.11
2023-04-23T21:28:39.777Z,10.84
2023-04-23T21:31:42.261Z,11.27
2023-04-23T21:34:29.896Z,11.29
2023-04-23T21:37:17.534Z,11.24
2023-04-23T21:40:06.313Z,11.35
2023-04-23T21:42:56.199Z,11.11
2023-04-23T21:45:44.074Z,11.16
2023-04-23T21:48:34.212Z,11.35
2023-04-23T21:51:23.198Z,11.34
2023-04-23T21:54:10.896Z,10.92
2023-04-23T21:56:58.683Z,11.25
2023-04-23T21:59:46.369Z,11.38
2023-04-23T22:02:34.207Z,11.33
2023-04-23T22:05:23.397Z,11.15
2023-04-23T22:08:11.175Z,11.30
2023-04-23T22:10:58.835Z,11.17
2023-04-23T22:13:46.581Z,11.11
2023-04-23T22:16:34.469Z,10.97
2023-04-23T22:19:22.432Z,11.10
2023-04-23T22:22:10.036Z,10.56
2023-04-23T22:24:57.755Z,10.81
2023-04-23T22:27:45.379Z,10.73
2023-04-23T22:30:33.262Z,10.58
2023-04-23T22:33:21.333Z,10.77
2023-04-23T22:36:09.199Z,10.64
2023-04-23T22:38:56.963Z,10.70
2023-04-23T22:41:45.743Z,10.75
2023-04-23T22:44:33.342Z,10.85
2023-04-23T22:47:21.395Z,10.83
2023-04-23T22:50:09.497Z,10.85
2023-04-23T22:52:57.398Z,10.76
2023-04-23T22:55:46.365Z,10.84
2023-04-23T22:58:34.272Z,10.66
2023-04-23T23:01:21.873Z,10.59
2023-04-23T23:04:13.287Z,10.62
2023-04-23T23:07:01.618Z,10.67
2023-04-23T23:09:49.337Z,10.54
2023-04-23T23:12:37.397Z,10.40
2023-04-23T23:15:27.444Z,10.40
2023-04-23T23:18:15.056Z,10.28
2023-04-23T23:21:03.148Z,10.37
2023-04-23T23:23:51.186Z,10.52
2023-04-23T23:26:38.783Z,10.36
2023-04-23T23:29:26.519Z,10.45
2023-04-23T23:32:14.273Z,10.28
2023-04-23T23:35:02.308Z,10.36
2023-04-23T23:37:50.024Z,10.15
2023-04-23T23:40:38.236Z,10.10
2023-04-23T23:43:29.006Z,10.15
2023-04-23T23:46:20.187Z,10.14
2023-04-23T23:49:08.583Z,9.86
2023-04-23T23:51:56.726Z,9.90
2023-04-23T23:54:45.628Z,10.12
2023-04-23T23:57:33.692Z,10.20
